Time;durP1;ratioP1;P1;durP2;ratioP2;P2;SDS_P1;SDS_P2;PMS_P1;PMS_P2;Temp;Humidity;BMP_temperature;BMP_pressure;BME280_temperature;BME280_humidity;BME280_pressure;Samples;Min_cycle;Max_cycle;Signal;HPM_P1;HPM_P2
2024/01/27 00:00:23;;;;;;;12.07;1.73;;;;;;;5.87;81.46;102178.97;5043838;28;20071;-65
2024/01/27 00:02:49;;;;;;;7.20;1.00;;;;;;;5.87;81.27;102176.34;5043550;28;20129;-68
2024/01/27 00:07:28;;;;;;;10.70;1.63;;;;;;;5.88;80.91;102162.41;5084330;28;20360;-66
2024/01/27 00:09:58;;;;;;;16.95;2.33;;;;;;;5.88;80.99;102176.44;5083868;28;20074;-68
2024/01/27 00:12:23;;;;;;;18.83;1.83;;;;;;;5.86;80.54;102174.47;5083788;28;20028;-74
2024/01/27 00:14:48;;;;;;;15.37;1.93;;;;;;;5.84;80.60;102181.28;5084045;28;20036;-67
2024/01/27 00:17:14;;;;;;;12.57;2.13;;;;;;;5.86;79.81;102180.63;5083893;28;20036;-66
2024/01/27 00:19:39;;;;;;;16.27;1.80;;;;;;;5.86;79.77;102182.31;5084321;28;20044;-73
2024/01/27 00:22:06;;;;;;;12.20;1.35;;;;;;;5.87;79.31;102190.34;5084384;28;20044;-64
2024/01/27 00:24:31;;;;;;;17.60;1.67;;;;;;;5.90;78.96;102181.81;5084096;28;20044;-67
2024/01/27 00:26:57;;;;;;;8.55;1.50;;;;;;;5.93;78.92;102189.94;5085548;28;20040;-63
2024/01/27 00:29:22;;;;;;;12.03;2.63;;;;;;;5.92;79.15;102177.63;5085502;28;20048;-68
2024/01/27 00:31:49;;;;;;;10.63;1.50;;;;;;;5.98;78.23;102193.84;5084138;28;20476;-65
2024/01/27 00:34:14;;;;;;;10.68;1.30;;;;;;;6.00;78.03;102181.78;5088754;28;20040;-71
2024/01/27 00:36:40;;;;;;;15.70;2.13;;;;;;;6.00;77.25;102187.03;5083748;28;20605;-65
2024/01/27 00:39:06;;;;;;;12.95;2.22;;;;;;;6.00;77.69;102194.91;5082119;28;20112;-65
2024/01/27 00:41:31;;;;;;;17.30;1.50;;;;;;;5.99;77.91;102179.94;5083054;28;20915;-67
2024/01/27 00:43:57;;;;;;;13.47;1.70;;;;;;;5.98;77.92;102196.47;5083538;28;20125;-64
2024/01/27 00:46:23;;;;;;;12.32;1.70;;;;;;;5.96;77.88;102195.44;5082897;28;20036;-64
2024/01/27 00:48:48;;;;;;;11.53;1.40;;;;;;;5.91;77.63;102191.53;5082782;28;20037;-71
2024/01/27 00:51:13;;;;;;;13.23;2.20;;;;;;;5.89;77.53;102201.88;5080180;28;20111;-69
2024/01/27 00:53:41;;;;;;;16.23;1.90;;;;;;;5.86;77.53;102211.19;5079904;28;20306;-64
2024/01/27 00:56:06;;;;;;;8.52;0.98;;;;;;;5.82;77.89;102190.75;5079701;28;20439;-67
2024/01/27 00:58:31;;;;;;;11.17;1.80;;;;;;;5.79;78.08;102204.50;5080606;28;20851;-66
2024/01/27 01:00:58;;;;;;;6.00;1.23;;;;;;;5.75;78.25;102209.34;5080721;28;20585;-64
2024/01/27 01:03:24;;;;;;;11.77;1.55;;;;;;;5.69;78.66;102209.75;5079837;28;20039;-72
2024/01/27 01:05:50;;;;;;;8.57;1.13;;;;;;;5.65;79.04;102213.84;5080225;28;20044;-68
2024/01/27 01:08:15;;;;;;;16.38;1.60;;;;;;;5.62;79.43;102205.69;5082884;28;20032;-63
2024/01/27 01:10:41;;;;;;;19.80;1.77;;;;;;;5.60;79.35;102212.53;5082383;28;20035;-65
2024/01/27 01:13:06;;;;;;;10.60;2.00;;;;;;;5.58;79.74;102205.31;5083032;28;20093;-65
2024/01/27 01:15:31;;;;;;;11.50;1.87;;;;;;;5.55;79.95;102218.19;5082223;28;20845;-64
2024/01/27 01:17:57;;;;;;;15.70;1.77;;;;;;;5.50;80.16;102209.94;5075449;28;20036;-64
2024/01/27 01:20:25;;;;;;;19.57;1.80;;;;;;;5.46;80.22;102204.31;5068902;28;20482;-65
2024/01/27 01:22:52;;;;;;;16.75;2.03;;;;;;;5.46;80.49;102215.72;5068224;28;20044;-68
2024/01/27 01:25:17;;;;;;;12.45;1.90;;;;;;;5.46;80.50;102206.94;5066027;28;20508;-65
2024/01/27 01:27:43;;;;;;;16.27;1.97;;;;;;;5.43;80.24;102215.44;5071290;28;20135;-63
2024/01/27 01:30:09;;;;;;;13.73;1.50;;;;;;;5.38;80.70;102231.56;5066403;28;20040;-69
2024/01/27 01:32:35;;;;;;;19.15;1.92;;;;;;;5.38;80.91;102221.09;5066776;28;20041;-68
2024/01/27 01:35:00;;;;;;;13.45;1.70;;;;;;;5.40;80.75;102225.66;5070806;28;20043;-67
2024/01/27 01:37:25;;;;;;;16.77;1.57;;;;;;;5.39;80.54;102223.81;5065489;28;20051;-63
2024/01/27 01:39:51;;;;;;;16.77;1.70;;;;;;;5.39;80.72;102233.38;5065508;28;20621;-63
2024/01/27 01:42:16;;;;;;;11.03;1.67;;;;;;;5.38;80.89;102221.09;5065430;28;20135;-66
2024/01/27 01:44:41;;;;;;;10.63;2.10;;;;;;;5.36;80.93;102233.13;5065360;28;21038;-64
2024/01/27 01:47:07;;;;;;;5.97;1.23;;;;;;;5.32;81.05;102229.34;5067559;28;20040;-64
2024/01/27 01:49:33;;;;;;;13.88;2.13;;;;;;;5.30;81.27;102233.53;5070865;28;20512;-64
2024/01/27 01:51:59;;;;;;;8.47;1.27;;;;;;;5.32;81.19;102229.34;5065208;28;20032;-68
2024/01/27 01:54:27;;;;;;;14.07;1.33;;;;;;;5.34;81.00;102240.84;5065548;28;20157;-65
2024/01/27 01:56:54;;;;;;;12.90;1.70;;;;;;;5.35;81.19;102231.28;5064312;28;20044;-67
2024/01/27 01:59:20;;;;;;;15.82;1.95;;;;;;;5.37;81.02;102246.38;5064974;28;20544;-68
2024/01/27 02:01:45;;;;;;;10.83;1.37;;;;;;;5.38;81.25;102244.69;5065688;28;20139;-68
2024/01/27 02:04:10;;;;;;;18.70;1.77;;;;;;;5.39;81.32;102246.47;5064917;28;20039;-63
2024/01/27 02:06:36;;;;;;;15.63;1.97;;;;;;;5.38;81.68;102240.31;5064531;28;20123;-70
2024/01/27 02:09:01;;;;;;;19.90;2.53;;;;;;;5.44;81.49;102246.09;5064838;28;20032;-64
2024/01/27 02:11:26;;;;;;;22.57;2.13;;;;;;;5.50;81.06;102249.25;5064816;28;20109;-64
2024/01/27 02:13:52;;;;;;;14.77;2.00;;;;;;;5.52;80.81;102250.31;5065184;28;20127;-69
2024/01/27 02:16:17;;;;;;;20.75;2.30;;;;;;;5.56;80.84;102246.22;5065201;28;20036;-65
2024/01/27 02:18:43;;;;;;;16.03;1.47;;;;;;;5.55;80.64;102250.53;5065133;28;20447;-64
2024/01/27 02:21:08;;;;;;;13.83;2.27;;;;;;;5.56;80.71;102261.94;5064869;28;20067;-64
2024/01/27 02:23:34;;;;;;;10.17;1.50;;;;;;;5.55;81.05;102242.69;5064788;28;20131;-63
2024/01/27 02:25:59;;;;;;;18.17;2.00;;;;;;;5.58;80.81;102252.50;5064376;28;20317;-66
2024/01/27 02:28:25;;;;;;;16.70;2.13;;;;;;;5.58;80.50;102262.97;5069564;28;20116;-65
2024/01/27 02:30:50;;;;;;;16.55;2.03;;;;;;;5.59;80.50;102255.25;5064312;28;20037;-64
2024/01/27 02:33:16;;;;;;;14.60;1.70;;;;;;;5.60;80.40;102272.81;5070547;28;20115;-62
2024/01/27 02:35:43;;;;;;;20.93;1.90;;;;;;;5.59;80.35;102272.69;5066962;28;20107;-69
2024/01/27 02:38:08;;;;;;;12.13;1.75;;;;;;;5.54;80.40;102269.66;5066234;28;20097;-62
2024/01/27 02:40:34;;;;;;;16.47;2.27;;;;;;;5.51;80.63;102277.28;5066010;28;20041;-68
2024/01/27 02:42:59;;;;;;;11.77;1.87;;;;;;;5.47;80.59;102277.81;5066452;28;20169;-67
2024/01/27 02:45:24;;;;;;;16.67;2.50;;;;;;;5.41;80.78;102289.47;5066049;28;20510;-65
2024/01/27 02:47:50;;;;;;;9.65;1.50;;;;;;;5.33;81.20;102290.53;5066578;28;20123;-66
2024/01/27 02:50:15;;;;;;;14.00;1.77;;;;;;;5.30;81.18;102291.16;5066309;28;20497;-66
2024/01/27 02:52:41;;;;;;;15.43;2.00;;;;;;;5.29;80.84;102285.78;5067329;28;20412;-63
2024/01/27 02:55:06;;;;;;;8.17;1.60;;;;;;;5.26;81.13;102291.69;5066364;28;20028;-63
2024/01/27 02:57:32;;;;;;;13.27;1.70;;;;;;;5.19;81.36;102300.72;5067012;28;20040;-68
2024/01/27 02:59:57;;;;;;;21.70;2.17;;;;;;;5.16;81.65;102305.69;5066398;28;20042;-66
2024/01/27 03:02:23;;;;;;;14.93;1.20;;;;;;;5.16;81.65;102307.38;5067365;28;20036;-63
2024/01/27 03:04:48;;;;;;;17.73;3.03;;;;;;;5.18;81.84;102306.72;5066530;28;20036;-67
2024/01/27 03:07:13;;;;;;;16.70;1.97;;;;;;;5.18;81.82;102297.97;5066022;28;20299;-67
2024/01/27 03:09:39;;;;;;;10.27;1.60;;;;;;;5.14;81.91;102312.47;5066382;28;20037;-62
2024/01/27 03:12:05;;;;;;;16.23;1.73;;;;;;;5.09;82.20;102307.63;5067162;28;20036;-62
2024/01/27 03:14:30;;;;;;;13.05;1.77;;;;;;;5.06;82.25;102310.00;5066709;28;20469;-65
2024/01/27 03:16:55;;;;;;;14.93;2.00;;;;;;;5.00;82.52;102305.13;5065861;28;20043;-62
2024/01/27 03:19:21;;;;;;;12.87;2.10;;;;;;;4.97;82.65;102303.94;5065994;28;20056;-62
2024/01/27 03:21:46;;;;;;;11.47;1.80;;;;;;;4.99;82.60;102287.56;5057903;28;20039;-67
2024/01/27 03:24:12;;;;;;;14.80;1.83;;;;;;;4.98;82.84;102308.41;5066172;28;20074;-63
2024/01/27 03:26:37;;;;;;;12.93;2.25;;;;;;;4.97;82.62;102309.19;5065700;28;20397;-66
2024/01/27 03:29:02;;;;;;;10.87;1.87;;;;;;;4.94;82.86;102315.06;5070668;28;20028;-62
2024/01/27 03:31:32;;;;;;;15.17;2.13;;;;;;;4.93;82.78;102317.56;5065970;28;20496;-66
2024/01/27 03:34:01;;;;;;;6.60;1.08;;;;;;;4.90;83.20;102322.50;5070578;28;20051;-67
2024/01/27 03:36:27;;;;;;;13.35;1.63;;;;;;;4.89;83.19;102326.81;5065121;28;20044;-65
2024/01/27 03:38:52;;;;;;;16.87;2.20;;;;;;;4.85;83.49;102329.03;5065183;28;20037;-70
2024/01/27 03:41:18;;;;;;;14.07;1.67;;;;;;;4.81;83.48;102325.25;5064591;28;20071;-64
2024/01/27 03:43:43;;;;;;;9.67;1.50;;;;;;;4.78;83.68;102335.44;5065392;28;20115;-69
2024/01/27 03:46:08;;;;;;;9.97;1.63;;;;;;;4.76;83.91;102323.91;5064706;28;20583;-64
2024/01/27 03:48:37;;;;;;;11.37;1.50;;;;;;;4.75;84.02;102333.47;5064220;28;20166;-69
2024/01/27 03:51:03;;;;;;;14.47;2.47;;;;;;;4.74;84.01;102328.06;5064487;28;20287;-64
2024/01/27 03:53:28;;;;;;;7.53;1.25;;;;;;;4.70;84.11;102326.91;5064587;28;20422;-65
2024/01/27 03:55:54;;;;;;;11.63;2.47;;;;;;;4.71;84.32;102330.44;5054231;28;20797;-63
2024/01/27 03:58:19;;;;;;;14.70;1.63;;;;;;;4.71;84.33;102323.50;5060625;28;20033;-64
2024/01/27 04:00:45;;;;;;;9.83;1.83;;;;;;;4.74;84.41;102328.06;5065037;28;20050;-64
2024/01/27 04:03:10;;;;;;;14.77;1.73;;;;;;;4.73;84.28;102335.03;5064119;28;20559;-67
2024/01/27 04:05:36;;;;;;;17.30;1.80;;;;;;;4.70;84.44;102332.13;5062548;28;20067;-63
2024/01/27 04:08:02;;;;;;;9.93;1.50;;;;;;;4.67;84.79;102330.94;5064273;28;20085;-64
2024/01/27 04:10:27;;;;;;;14.88;1.65;;;;;;;4.66;84.84;102340.50;5061145;28;20036;-65
2024/01/27 04:12:53;;;;;;;13.63;1.37;;;;;;;4.62;85.13;102353.16;5056112;28;20472;-64
2024/01/27 04:15:18;;;;;;;18.00;1.40;;;;;;;4.65;85.20;102358.66;5063546;28;20409;-68
2024/01/27 04:17:44;;;;;;;20.10;2.40;;;;;;;4.63;85.37;102353.31;5063635;28;20123;-65
2024/01/27 04:20:09;;;;;;;13.90;2.70;;;;;;;4.64;85.32;102368.22;5063594;28;20576;-64
2024/01/27 04:22:35;;;;;;;16.43;2.13;;;;;;;4.64;85.65;102362.06;5063384;28;20048;-66
2024/01/27 04:25:01;;;;;;;12.02;1.55;;;;;;;4.65;85.62;102367.44;5063155;28;20036;-63
2024/01/27 04:27:30;;;;;;;14.57;1.90;;;;;;;4.65;85.60;102372.69;5069365;28;20066;-67
2024/01/27 04:29:56;;;;;;;11.80;1.45;;;;;;;4.64;85.64;102365.59;5061459;28;20472;-68
2024/01/27 04:32:22;;;;;;;12.38;1.40;;;;;;;4.61;85.79;102369.66;5063045;28;20029;-66
2024/01/27 04:34:48;;;;;;;15.53;1.70;;;;;;;4.59;85.81;102366.88;5068518;28;20048;-64
2024/01/27 04:37:13;;;;;;;16.27;1.88;;;;;;;4.58;85.92;102375.53;5062498;28;20029;-67
2024/01/27 04:39:39;;;;;;;12.07;1.80;;;;;;;4.59;86.02;102379.03;5054926;28;20041;-66
2024/01/27 04:42:06;;;;;;;10.18;1.50;;;;;;;4.58;86.13;102385.09;5054695;28;20033;-64
2024/01/27 04:44:31;;;;;;;9.40;1.87;;;;;;;4.55;86.42;102385.72;5062933;28;20056;-69
2024/01/27 04:46:57;;;;;;;13.30;1.85;;;;;;;4.54;86.47;102404.78;5062528;28;20044;-62
2024/01/27 04:49:22;;;;;;;23.67;2.63;;;;;;;4.57;86.60;102412.03;5062577;28;20067;-68
2024/01/27 04:51:47;;;;;;;13.60;1.70;;;;;;;4.60;86.63;102417.53;5062985;28;20147;-65
2024/01/27 04:54:13;;;;;;;13.97;2.40;;;;;;;4.60;86.74;102418.44;5066368;28;20185;-64
2024/01/27 04:56:38;;;;;;;12.77;1.97;;;;;;;4.63;86.79;102410.91;5058473;28;21340;-66
2024/01/27 04:59:04;;;;;;;9.37;1.27;;;;;;;4.70;86.78;102414.97;5066371;28;20120;-64
2024/01/27 05:01:29;;;;;;;25.30;2.27;;;;;;;4.74;86.53;102419.69;5067599;28;20390;-64
2024/01/27 05:03:54;;;;;;;9.47;1.53;;;;;;;4.81;86.53;102424.72;5066515;28;20127;-67
2024/01/27 05:06:20;;;;;;;11.10;1.23;;;;;;;4.88;86.32;102439.28;5065664;28;20037;-63
2024/01/27 05:08:45;;;;;;;15.73;1.53;;;;;;;4.93;86.29;102443.25;5064806;28;20361;-64
2024/01/27 05:11:11;;;;;;;13.90;1.40;;;;;;;4.97;86.15;102450.59;5067301;28;20075;-62
2024/01/27 05:13:37;;;;;;;18.90;1.80;;;;;;;5.01;86.00;102448.38;5065686;28;20202;-68
2024/01/27 05:16:03;;;;;;;10.63;1.52;;;;;;;5.04;85.97;102443.41;5066090;28;20055;-66
2024/01/27 05:18:28;;;;;;;16.88;2.00;;;;;;;5.06;85.77;102446.16;5067289;28;20041;-66
2024/01/27 05:20:54;;;;;;;8.90;1.70;;;;;;;5.07;85.83;102448.94;5066228;28;20435;-65
2024/01/27 05:23:19;;;;;;;10.43;1.20;;;;;;;5.09;85.91;102459.53;5066703;28;20536;-63
2024/01/27 05:25:44;;;;;;;14.43;2.30;;;;;;;5.11;85.94;102465.84;5065308;28;20041;-65
2024/01/27 05:28:10;;;;;;;17.35;1.75;;;;;;;5.13;85.89;102465.16;5071133;28;20591;-67
2024/01/27 05:30:35;;;;;;;14.27;2.00;;;;;;;5.18;85.87;102465.63;5065922;28;20094;-69
2024/01/27 05:33:00;;;;;;;9.50;1.43;;;;;;;5.20;85.64;102466.66;5068460;28;20553;-64
2024/01/27 05:35:26;;;;;;;15.67;2.13;;;;;;;5.23;85.41;102480.94;5067938;28;20127;-64
2024/01/27 05:37:51;;;;;;;6.27;1.17;;;;;;;5.23;85.54;102478.31;5065859;28;20493;-68
2024/01/27 05:40:17;;;;;;;10.80;2.00;;;;;;;5.27;85.50;102474.28;5065096;28;20082;-64
2024/01/27 05:42:43;;;;;;;21.97;1.80;;;;;;;5.29;85.49;102482.25;5065492;28;20036;-64
2024/01/27 05:45:10;;;;;;;11.57;2.42;;;;;;;5.31;85.45;102475.47;5065491;28;20881;-65
2024/01/27 05:47:35;;;;;;;11.67;1.40;;;;;;;5.32;85.37;102475.63;5065071;28;20047;-61
2024/01/27 05:50:00;;;;;;;14.45;1.48;;;;;;;5.34;85.54;102481.91;5065131;28;20032;-67
2024/01/27 05:52:26;;;;;;;11.17;1.70;;;;;;;5.33;85.37;102480.06;5065273;28;20076;-64
2024/01/27 05:54:52;;;;;;;17.50;1.63;;;;;;;5.35;85.76;102485.44;5065766;28;20045;-63
2024/01/27 05:57:18;;;;;;;14.27;1.50;;;;;;;5.35;85.62;102488.06;5065209;28;20123;-68
2024/01/27 05:59:43;;;;;;;21.70;1.90;;;;;;;5.36;85.67;102487.28;5064549;28;20128;-64
2024/01/27 06:02:08;;;;;;;9.47;1.33;;;;;;;5.38;85.83;102485.72;5067070;28;20028;-69
2024/01/27 06:04:34;;;;;;;12.25;1.95;;;;;;;5.39;85.72;102480.59;5064916;28;20040;-65
2024/01/27 06:07:00;;;;;;;8.17;1.37;;;;;;;5.42;85.77;102493.06;5064723;28;20049;-67
2024/01/27 06:09:25;;;;;;;9.13;1.60;;;;;;;5.43;85.63;102494.88;5064817;28;20111;-71
2024/01/27 06:11:51;;;;;;;18.70;2.47;;;;;;;5.43;85.69;102493.19;5063592;28;20123;-66
2024/01/27 06:14:16;;;;;;;12.90;1.47;;;;;;;5.45;85.46;102499.50;5064741;28;20040;-64
2024/01/27 06:16:41;;;;;;;17.98;1.80;;;;;;;5.45;85.25;102494.25;5063724;28;20811;-65
2024/01/27 06:19:07;;;;;;;20.97;1.90;;;;;;;5.48;85.27;102502.38;5064777;28;20059;-64
2024/01/27 06:21:32;;;;;;;12.97;1.57;;;;;;;5.48;85.43;102502.38;5063275;28;20093;-69
2024/01/27 06:23:58;;;;;;;11.70;1.70;;;;;;;5.48;85.39;102499.75;5064830;28;20703;-65
2024/01/27 06:26:23;;;;;;;15.87;2.23;;;;;;;5.52;85.46;102508.84;5064875;28;20051;-63
2024/01/27 06:28:48;;;;;;;11.53;1.60;;;;;;;5.52;85.32;102522.88;5059710;28;20410;-70
2024/01/27 06:31:15;;;;;;;24.33;2.10;;;;;;;5.54;85.33;102518.66;5058736;28;20290;-66
2024/01/27 06:33:41;;;;;;;12.57;1.83;;;;;;;5.53;85.62;102516.81;5069644;28;20158;-67
2024/01/27 06:36:09;;;;;;;13.63;1.50;;;;;;;5.53;85.66;102514.19;5063504;28;20099;-66
2024/01/27 06:38:35;;;;;;;16.30;2.28;;;;;;;5.52;85.61;102504.53;5072921;28;20036;-70
2024/01/27 06:41:00;;;;;;;15.43;1.83;;;;;;;5.55;85.56;102516.97;5078995;28;20479;-64
2024/01/27 06:43:25;;;;;;;17.37;2.53;;;;;;;5.54;85.64;102517.72;5071386;28;20036;-71
2024/01/27 06:45:51;;;;;;;12.17;2.10;;;;;;;5.54;85.27;102529.16;5059464;28;20703;-67
2024/01/27 06:48:16;;;;;;;11.48;1.77;;;;;;;5.54;85.19;102516.03;5069126;28;20047;-64
2024/01/27 06:50:41;;;;;;;14.47;2.50;;;;;;;5.51;85.51;102522.72;5063544;28;20459;-70
2024/01/27 06:53:07;;;;;;;22.27;2.47;;;;;;;5.51;85.56;102530.59;5059836;28;20124;-64
2024/01/27 06:55:33;;;;;;;8.52;1.65;;;;;;;5.50;85.58;102527.03;5055652;28;20548;-66
2024/01/27 06:57:58;;;;;;;16.97;2.10;;;;;;;5.49;85.64;102550.47;5061125;28;20177;-65
2024/01/27 07:00:24;;;;;;;17.73;2.30;;;;;;;5.51;85.49;102549.84;5064117;28;20056;-66
2024/01/27 07:02:49;;;;;;;13.90;1.75;;;;;;;5.53;85.58;102548.25;5059303;28;20064;-66
2024/01/27 07:05:14;;;;;;;17.07;2.33;;;;;;;5.52;85.64;102553.41;5064105;28;20032;-69
2024/01/27 07:07:41;;;;;;;13.23;2.60;;;;;;;5.53;85.49;102557.81;5064308;28;20044;-64
2024/01/27 07:10:10;;;;;;;14.23;1.42;;;;;;;5.53;85.64;102552.59;5062396;28;20032;-62
2024/01/27 07:12:36;;;;;;;12.40;2.35;;;;;;;5.53;85.55;102553.50;5064734;28;20125;-68
2024/01/27 07:15:01;;;;;;;12.80;2.43;;;;;;;5.54;85.81;102557.06;5062868;28;20043;-69
2024/01/27 07:17:27;;;;;;;13.73;1.90;;;;;;;5.54;85.56;102557.97;5063789;28;20032;-65
2024/01/27 07:19:52;;;;;;;14.30;2.03;;;;;;;5.55;85.82;102578.16;5063247;28;20086;-64
2024/01/27 07:22:18;;;;;;;24.63;2.10;;;;;;;5.55;85.71;102572.00;5062628;28;20106;-66
2024/01/27 07:24:43;;;;;;;12.50;2.20;;;;;;;5.54;85.66;102581.56;5064111;28;20036;-63
2024/01/27 07:27:13;;;;;;;15.30;2.80;;;;;;;5.56;85.83;102584.34;5060333;28;20297;-63
2024/01/27 07:29:38;;;;;;;15.95;2.20;;;;;;;5.56;85.90;102600.97;5065163;28;20037;-68
2024/01/27 07:32:05;;;;;;;19.10;2.47;;;;;;;5.58;85.85;102599.41;5063697;28;20048;-66
2024/01/27 07:34:30;;;;;;;12.10;1.65;;;;;;;5.63;85.93;102600.72;5069144;28;20119;-64
2024/01/27 07:36:55;;;;;;;10.40;1.80;;;;;;;5.68;85.75;102610.72;5062179;28;20029;-68
2024/01/27 07:39:21;;;;;;;12.37;1.97;;;;;;;5.71;85.62;102613.63;5063020;28;20119;-64
2024/01/27 07:41:48;;;;;;;9.10;1.43;;;;;;;5.75;85.22;102618.34;5064655;28;20040;-65
2024/01/27 07:44:14;;;;;;;19.73;1.85;;;;;;;5.76;85.41;102620.19;5063347;28;20093;-69
2024/01/27 07:46:41;;;;;;;11.00;1.92;;;;;;;5.77;85.22;102629.91;5062672;28;20631;-69
2024/01/27 07:49:08;;;;;;;16.38;2.08;;;;;;;5.83;85.21;102627.81;5063136;28;20056;-64
2024/01/27 07:51:34;;;;;;;15.77;2.30;;;;;;;5.85;85.25;102637.69;5066354;28;20111;-64
2024/01/27 07:54:00;;;;;;;12.32;1.80;;;;;;;5.88;85.11;102637.06;5064396;28;20448;-71
2024/01/27 07:56:26;;;;;;;25.45;2.38;;;;;;;5.90;85.16;102639.03;5062534;28;20032;-67
2024/01/27 07:58:51;;;;;;;8.83;1.13;;;;;;;5.93;84.99;102641.94;5063311;28;20055;-64
2024/01/27 08:01:18;;;;;;;15.00;3.20;;;;;;;5.94;85.11;102641.16;5063816;28;20083;-66
2024/01/27 08:03:43;;;;;;;16.58;2.53;;;;;;;5.97;85.05;102643.16;5063049;28;20048;-70
2024/01/27 08:06:17;;;;;;;13.63;1.83;;;;;;;6.02;84.84;102647.06;5062994;28;20037;-65
2024/01/27 08:08:46;;;;;;;18.50;2.05;;;;;;;6.08;84.90;102650.25;5063752;28;20036;-64
2024/01/27 08:11:13;;;;;;;17.08;2.13;;;;;;;6.11;85.05;102655.78;5062688;28;20151;-68
2024/01/27 08:13:38;;;;;;;15.15;2.15;;;;;;;6.15;84.77;102656.97;5064736;28;20484;-72
2024/01/27 08:16:05;;;;;;;13.70;1.60;;;;;;;6.17;84.59;102661.56;5063570;28;20111;-65
2024/01/27 08:18:30;;;;;;;14.02;1.73;;;;;;;6.20;84.28;102651.34;5061341;28;20040;-69
2024/01/27 08:20:56;;;;;;;9.03;0.93;;;;;;;6.23;84.09;102656.84;5062776;28;20040;-64
2024/01/27 08:23:21;;;;;;;18.77;2.10;;;;;;;6.26;83.81;102654.53;5063768;28;20446;-64
2024/01/27 08:25:49;;;;;;;11.02;1.52;;;;;;;6.31;83.88;102668.97;5063205;28;20033;-66
2024/01/27 08:28:15;;;;;;;10.03;1.80;;;;;;;6.35;83.49;102668.44;5073761;28;20040;-64
2024/01/27 08:30:40;;;;;;;15.07;1.60;;;;;;;6.39;83.61;102672.25;5068982;28;20039;-68
2024/01/27 08:33:05;;;;;;;14.20;1.80;;;;;;;6.42;83.49;102668.19;5071102;28;20123;-66
2024/01/27 08:35:31;;;;;;;14.83;2.03;;;;;;;6.47;83.22;102681.72;5069364;28;20105;-63
2024/01/27 08:37:56;;;;;;;12.03;2.27;;;;;;;6.48;83.15;102684.47;5068462;28;20140;-68
2024/01/27 08:40:22;;;;;;;16.87;1.80;;;;;;;6.51;83.24;102694.34;5069399;28;20116;-65
2024/01/27 08:42:47;;;;;;;11.50;1.83;;;;;;;6.51;82.89;102692.59;5059158;28;20067;-63
2024/01/27 08:45:12;;;;;;;17.00;2.00;;;;;;;6.54;82.71;102705.09;5067327;28;20121;-68
2024/01/27 08:47:38;;;;;;;23.63;2.40;;;;;;;6.59;82.73;102708.13;5067318;28;20041;-62
2024/01/27 08:50:04;;;;;;;8.93;1.33;;;;;;;6.62;82.53;102708.38;5067926;28;20198;-66
2024/01/27 08:52:30;;;;;;;12.75;1.55;;;;;;;6.66;82.45;102707.91;5067739;28;20040;-64
2024/01/27 08:54:55;;;;;;;20.73;4.53;;;;;;;6.67;81.98;102707.09;5067414;28;20047;-64
2024/01/27 08:57:20;;;;;;;15.25;2.25;;;;;;;6.71;82.25;102719.72;5066199;28;20066;-65
2024/01/27 08:59:46;;;;;;;16.87;2.03;;;;;;;6.72;81.76;102722.47;5066240;28;20037;-64
2024/01/27 09:02:11;;;;;;;17.47;1.77;;;;;;;6.76;81.72;102726.31;5067537;28;20143;-67
2024/01/27 09:04:36;;;;;;;11.33;1.77;;;;;;;6.77;81.33;102718.53;5066669;28;20048;-67
2024/01/27 09:07:02;;;;;;;13.47;1.37;;;;;;;6.82;81.56;102718.94;5065894;28;20131;-64
2024/01/27 09:09:28;;;;;;;18.63;2.53;;;;;;;6.84;81.54;102741.00;5066066;28;20039;-67
2024/01/27 09:12:00;;;;;;;19.92;2.97;;;;;;;6.86;81.50;102731.53;5066005;28;20029;-65
2024/01/27 09:14:26;;;;;;;24.07;2.80;;;;;;;6.91;81.33;102730.22;5068320;28;20044;-64
2024/01/27 09:16:52;;;;;;;18.35;2.25;;;;;;;6.91;81.39;102724.97;5066020;28;20039;-66
2024/01/27 09:19:17;;;;;;;16.57;1.80;;;;;;;6.96;81.12;102744.69;5066114;28;20047;-65
2024/01/27 09:21:43;;;;;;;12.07;2.15;;;;;;;6.98;81.25;102734.31;5063548;28;20115;-64
2024/01/27 09:24:09;;;;;;;15.37;2.00;;;;;;;6.95;81.18;102742.88;5067643;28;20071;-63
2024/01/27 09:26:34;;;;;;;12.60;2.53;;;;;;;6.94;81.65;102741.94;5066986;28;20569;-68
2024/01/27 09:29:00;;;;;;;10.27;1.60;;;;;;;6.92;81.54;102747.84;5070120;28;20032;-67
2024/01/27 09:31:25;;;;;;;14.03;1.97;;;;;;;6.91;81.80;102741.66;5065627;28;20037;-71
2024/01/27 09:33:52;;;;;;;9.85;2.53;;;;;;;6.92;81.89;102742.59;5071765;28;20098;-65
2024/01/27 09:36:18;;;;;;;13.17;1.83;;;;;;;6.93;81.93;102749.69;5066257;28;20055;-67
2024/01/27 09:38:44;;;;;;;22.55;2.72;;;;;;;6.91;81.94;102744.28;5065155;28;20097;-65
2024/01/27 09:41:12;;;;;;;15.93;2.77;;;;;;;6.99;81.86;102759.81;5065429;28;20041;-67
2024/01/27 09:43:40;;;;;;;13.52;1.65;;;;;;;7.05;81.72;102748.13;5065427;28;20040;-65
2024/01/27 09:46:05;;;;;;;14.50;1.92;;;;;;;7.08;81.70;102751.03;5065591;28;20071;-65
2024/01/27 09:48:35;;;;;;;18.63;2.63;;;;;;;7.07;81.55;102753.50;5065592;28;20575;-64
2024/01/27 09:51:02;;;;;;;16.45;1.70;;;;;;;7.05;81.24;102749.84;5065868;28;20055;-64
2024/01/27 09:53:27;;;;;;;22.00;2.38;;;;;;;7.08;81.50;102761.53;5065680;28;20044;-65
2024/01/27 09:55:53;;;;;;;17.00;2.20;;;;;;;7.09;81.25;102760.75;5065342;28;20531;-64
2024/01/27 09:58:19;;;;;;;15.90;2.33;;;;;;;7.12;81.33;102762.72;5066210;28;20048;-64
2024/01/27 10:00:45;;;;;;;15.37;2.07;;;;;;;7.15;81.01;102763.00;5067369;28;20040;-66
2024/01/27 10:03:10;;;;;;;15.85;2.65;;;;;;;7.20;81.39;102759.94;5067310;28;20472;-66
2024/01/27 10:05:37;;;;;;;19.53;2.80;;;;;;;7.24;80.70;102762.06;5064737;28;20502;-70
2024/01/27 10:08:06;;;;;;;11.48;1.88;;;;;;;7.24;80.97;102769.97;5066117;28;20067;-65
2024/01/27 10:10:31;;;;;;;11.65;2.25;;;;;;;7.35;80.75;102778.78;5066577;28;20040;-65
2024/01/27 10:12:59;;;;;;;15.40;2.10;;;;;;;7.35;80.36;102774.41;5065835;28;20424;-64
2024/01/27 10:15:26;;;;;;;10.18;2.90;;;;;;;7.31;80.46;102774.94;5065182;28;20033;-65
2024/01/27 10:17:51;;;;;;;13.48;2.33;;;;;;;7.26;80.65;102770.06;5066241;28;20055;-64
2024/01/27 10:20:18;;;;;;;19.47;2.00;;;;;;;7.32;80.69;102776.78;5065850;28;20033;-64
2024/01/27 10:22:45;;;;;;;12.77;2.03;;;;;;;7.34;80.41;102767.34;5065574;28;20054;-62
2024/01/27 10:25:11;;;;;;;14.50;2.10;;;;;;;7.43;80.25;102761.94;5065219;28;20111;-66
2024/01/27 10:27:36;;;;;;;12.52;2.08;;;;;;;7.53;79.77;102758.38;5070193;28;20488;-68
2024/01/27 10:30:02;;;;;;;13.70;2.43;;;;;;;7.61;79.35;102762.56;5064836;28;20043;-63
2024/01/27 10:32:28;;;;;;;11.85;2.17;;;;;;;7.63;79.26;102761.00;5064819;28;20057;-68
2024/01/27 10:35:04;;;;;;;18.50;2.43;;;;;;;7.66;79.22;102758.63;5070031;28;20090;-65
2024/01/27 10:37:30;;;;;;;13.40;2.22;;;;;;;7.66;79.16;102770.06;5064619;28;20093;-64
2024/01/27 10:40:09;;;;;;;18.23;2.40;;;;;;;7.65;79.23;102769.91;5062951;28;20886;-67
2024/01/27 10:42:36;;;;;;;18.20;2.38;;;;;;;7.65;79.37;102770.84;5064106;28;20560;-63
2024/01/27 10:45:03;;;;;;;11.13;2.35;;;;;;;7.65;79.64;102781.38;5064384;28;20032;-63
2024/01/27 10:47:30;;;;;;;20.92;2.60;;;;;;;7.67;79.63;102776.25;5064141;28;20487;-65
2024/01/27 10:49:57;;;;;;;16.67;2.55;;;;;;;7.61;79.13;102776.63;5063016;28;20051;-65
2024/01/27 10:52:28;;;;;;;14.10;2.50;;;;;;;7.66;79.48;102779.66;5064502;28;20040;-67
2024/01/27 10:54:59;;;;;;;15.63;2.47;;;;;;;7.75;79.11;102783.97;5063550;28;20124;-66
2024/01/27 10:57:26;;;;;;;15.52;2.00;;;;;;;7.71;78.96;102789.78;5063949;28;20044;-66
2024/01/27 10:59:53;;;;;;;9.77;1.90;;;;;;;7.69;79.05;102788.75;5063789;28;20119;-68
2024/01/27 11:02:19;;;;;;;13.27;2.17;;;;;;;7.72;79.20;102781.09;5066153;28;20444;-67
2024/01/27 11:04:45;;;;;;;16.60;2.60;;;;;;;7.74;79.19;102778.63;5064404;28;20040;-67
2024/01/27 11:07:11;;;;;;;11.00;2.10;;;;;;;7.72;78.97;102786.38;5063733;28;20093;-69
2024/01/27 11:09:38;;;;;;;22.23;2.40;;;;;;;7.72;79.00;102788.06;5062839;28;20841;-67
2024/01/27 11:12:05;;;;;;;15.40;1.90;;;;;;;7.71;79.37;102780.97;5063798;28;20032;-67
2024/01/27 11:14:30;;;;;;;15.10;3.50;;;;;;;7.75;79.59;102789.25;5063909;28;20064;-65
2024/01/27 11:16:57;;;;;;;16.33;2.33;;;;;;;7.79;79.07;102788.69;5063734;28;20695;-65
2024/01/27 11:19:23;;;;;;;12.55;1.95;;;;;;;7.90;79.14;102784.34;5063726;28;20036;-68
2024/01/27 11:21:48;;;;;;;16.30;3.30;;;;;;;7.96;78.82;102791.84;5063882;28;20042;-65